Glenwood, MN

11:41 PM CST on December 21, 2014 (GMT -0600)
KMGK (Magic 107.1) FM | Change Station
CLOSE
Current Station
Personal Weather Station
Location: Glenwood, MN
Elevation: 1168 ft
Nearby Weather Stations

Elev 1168 ft 45.65 °N, 95.39 °W | Updated 0 second ago

Fog
Fog
36.2 °F
Feels Like 36 °F
N
1.0
Wind Variable Wind from SSE
Gusts 12.0 mph

Today
High -- | Low -- °F
--% Chance of Precip.
Yesterday
High -- | Low -- °F
Precip. -- in
7:59 AM 4:40 PM
New Moon, 0% visible
Pressure 29.60 in
Visibility 2.5 miles
Clouds Overcast 200 ft
Windchill 36 °F
Dew Point 36 °F
Humidity 100%
Rainfall 0.03 in
Snow Depth Not available.
UV 0 out of 12
Pollen .10 out of 12
Air Quality Not available.
Flu Activity Not available.
METAR KGHW 220533Z AUTO 13010KT 2 1/2SM BR OVC002 02/02 A2960 RMK AO2

More Conditions Fewer Conditions

Pressure 29.60 in
Visibility 2.5 miles
Clouds Overcast 200 ft
Windchill 36 °F
Dew Point 36 °F
Humidity 100%
Rainfall 0.03 in
Snow Depth Not available.
UV 0 out of 12
Pollen .10 out of 12
Air Quality Not available.
Flu Activity Not available.
METAR KGHW 220533Z AUTO 13010KT 2 1/2SM BR OVC002 02/02 A2960 RMK AO2

More Conditions Fewer Conditions

10-Day Weather Forecast

Almanac

Astronomy

Dec. 21, 2014 Rise Set
Actual Time
Civil Twilight
Nautical Twilight
Astronomical Twilight
Moon
Length of Visible Light
Length of Day
Tomorrow will be .
, % of the Moon is Illuminated

Today's Extremes

State Highs State Lows

Community

WunderPhotos

Upload Photos

1,779,549 photos uploaded!

WunderBlogs® & News

Nearby

Air Quality

  Air Quality AQ Index Pollutant
Not available.

Snow Depth

Station Depth Elevation

Earthquake Activity

City Distance Mag. Time & Date
Minimum magnitude displayed is 2.5.

Coastal Water Temperatures

Place Temperature

Nearby Weather Stations